GAMB

Details ICAO GAMB (MZI)
Name AMBODEDJO
Region Mali
Timezone Africa/Bamako (UTC+0.0)
Plans Departing 4
Arriving 8
Stats Elevation 906 ft / 276 m (AMSL)
Location 14.512757° -4.079555°
Runways 1
Magnetic Variation 2.549° W
Sunrise 2018-05-21 05:48:49 UTC / 2018-05-21 05:48:49 Local
Sunset 2018-05-21 18:39:51 UTC / 2018-05-21 18:39:51 Local
Advertisement - Login to hide

Runways

ID Width Length Bearing (true) Bearing (mag) Surface Threshold Offset Overrun Length
05 94 ft / 29 m 8,355 ft / 2,547 m 47.17° 49.72° Asphalt 0 ft / 0 m 200 ft / 61 m
23 94 ft / 29 m 8,355 ft / 2,547 m 227.18° 229.73° Asphalt 0 ft / 0 m 200 ft / 61 m

Map

Weather


0- 5 10 15 20 25 30 35+ Temperature / ° C

Clouds and Precipitation
Forecast for 2018-05-21 18:00 UTC. Updated 2 hours ago

Ground ~20,000 ft ~40,000 ft Winds

METAR

GAMB 211800Z 24018KT 8000 NSC 40/16 Q1007

TAF

Not found

Frequencies

Tower 118.10 MHz TWR
Warning: Do not use this data for real-world aviation or navigation. No guarantee of current accuracy is given.